createdAt,value
2019-06-07T00:00:38.260Z,0.00
2019-06-07T00:01:26.612Z,0.00
2019-06-07T00:02:26.537Z,0.00
2019-06-07T00:03:30.098Z,0.00
2019-06-07T00:04:26.566Z,0.00
2019-06-07T00:05:26.531Z,0.00
2019-06-07T00:06:26.549Z,0.00
2019-06-07T00:07:26.548Z,0.00
2019-06-07T00:08:28.867Z,0.00
2019-06-07T00:09:26.544Z,0.00
2019-06-07T00:10:36.080Z,0.00
2019-06-07T00:11:26.585Z,0.00
2019-06-07T00:12:26.599Z,0.00
2019-06-07T00:13:26.553Z,0.00
2019-06-07T00:14:26.547Z,0.00
2019-06-07T00:15:29.049Z,0.00
2019-06-07T00:16:26.605Z,0.00
2019-06-07T00:17:26.554Z,0.00
2019-06-07T00:18:26.567Z,0.00
2019-06-07T00:19:26.535Z,0.00
2019-06-07T00:20:26.627Z,0.00
2019-06-07T00:22:12.747Z,0.00
2019-06-07T00:22:33.192Z,0.00
2019-06-07T00:23:26.593Z,0.00
2019-06-07T00:24:26.604Z,0.44
2019-06-07T00:25:26.556Z,0.25
2019-06-07T00:26:26.596Z,0.73
2019-06-07T00:27:26.570Z,0.40
2019-06-07T00:28:26.599Z,0.34
2019-06-07T00:29:26.615Z,0.11
2019-06-07T00:30:41.073Z,0.13
2019-06-07T00:31:26.613Z,0.03
2019-06-07T00:32:26.581Z,0.36
2019-06-07T00:33:26.616Z,0.60
2019-06-07T00:34:26.547Z,0.50
2019-06-07T00:35:26.527Z,0.29
2019-06-07T00:36:26.565Z,0.57
2019-06-07T00:37:26.640Z,0.33
2019-06-07T00:38:26.622Z,0.32
2019-06-07T00:39:26.581Z,0.38
2019-06-07T00:40:31.776Z,0.10
2019-06-07T00:41:26.595Z,0.23
2019-06-07T00:42:26.560Z,0.73
2019-06-07T00:43:28.586Z,0.17
2019-06-07T00:44:26.646Z,0.47
2019-06-07T00:45:26.633Z,0.10
2019-06-07T00:46:26.614Z,0.02
2019-06-07T00:47:26.679Z,0.16
2019-06-07T00:48:32.394Z,0.00
2019-06-07T00:49:39.869Z,0.48
2019-06-07T00:50:26.633Z,0.01
2019-06-07T00:51:26.698Z,0.00
2019-06-07T00:53:13.205Z,0.00
2019-06-07T00:53:31.797Z,0.00
2019-06-07T00:54:26.635Z,0.71
2019-06-07T00:55:27.714Z,0.83
2019-06-07T00:56:26.702Z,0.97
2019-06-07T00:57:26.698Z,0.82
2019-06-07T00:58:27.898Z,0.71
2019-06-07T00:59:29.587Z,0.33
2019-06-07T01:00:26.646Z,0.00
2019-06-07T01:01:26.750Z,0.00
2019-06-07T01:02:31.309Z,0.00
2019-06-07T01:03:26.727Z,0.10
2019-06-07T01:04:27.214Z,0.11
2019-06-07T01:05:30.981Z,0.21
2019-06-07T01:06:26.693Z,0.00
2019-06-07T01:07:26.661Z,0.00
2019-06-07T01:08:29.871Z,0.01
2019-06-07T01:09:26.654Z,0.00
2019-06-07T01:10:51.663Z,0.02
2019-06-07T01:11:26.695Z,0.65
2019-06-07T01:12:27.012Z,0.06
2019-06-07T01:13:27.109Z,0.00
2019-06-07T01:14:28.381Z,0.19
2019-06-07T01:15:29.153Z,0.13
2019-06-07T01:16:26.689Z,0.00
2019-06-07T01:17:36.291Z,0.00
2019-06-07T01:18:37.755Z,0.00
2019-06-07T01:19:27.761Z,0.00
2019-06-07T01:20:26.865Z,0.00
2019-06-07T01:21:29.326Z,0.00
2019-06-07T01:22:29.001Z,0.00
2019-06-07T01:24:04.742Z,0.00
2019-06-07T01:24:28.055Z,0.00
2019-06-07T01:25:28.794Z,0.00
2019-06-07T01:26:29.454Z,0.00
2019-06-07T01:27:26.668Z,0.00
2019-06-07T01:28:27.182Z,0.00
2019-06-07T01:29:29.426Z,0.00
2019-06-07T01:30:26.898Z,0.00
2019-06-07T01:31:30.520Z,0.00
2019-06-07T01:32:27.163Z,0.00
2019-06-07T01:33:38.816Z,0.00
2019-06-07T01:34:26.989Z,0.00
2019-06-07T01:35:26.759Z,0.00
2019-06-07T01:36:29.560Z,0.00
2019-06-07T01:37:27.980Z,0.00
2019-06-07T01:38:26.864Z,0.02
2019-06-07T01:39:29.794Z,0.00
2019-06-07T01:40:29.696Z,0.00
2019-06-07T01:41:28.446Z,0.00
2019-06-07T01:42:29.441Z,0.00
2019-06-07T01:43:28.670Z,0.00
2019-06-07T01:44:28.107Z,0.00
2019-06-07T01:45:30.622Z,0.00
2019-06-07T01:46:26.920Z,0.00
2019-06-07T01:47:28.750Z,0.00
2019-06-07T01:48:44.575Z,0.00
2019-06-07T01:49:28.156Z,0.00
2019-06-07T01:50:27.273Z,0.17
2019-06-07T01:51:27.907Z,0.05
2019-06-07T01:52:26.821Z,0.08
2019-06-07T01:53:29.103Z,0.01
2019-06-07T01:54:52.141Z,0.00
2019-06-07T01:55:29.839Z,0.00
2019-06-07T01:56:29.519Z,0.25
2019-06-07T01:57:38.025Z,0.55
2019-06-07T01:58:29.059Z,0.32
2019-06-07T01:59:28.564Z,0.93
2019-06-07T02:00:31.479Z,0.23
2019-06-07T02:01:34.529Z,0.25
2019-06-07T02:02:30.040Z,0.44
2019-06-07T02:03:32.265Z,0.14
2019-06-07T02:04:29.376Z,0.69
2019-06-07T02:05:30.529Z,0.32
2019-06-07T02:06:27.929Z,0.11
2019-06-07T02:07:30.366Z,0.00
2019-06-07T02:08:33.568Z,0.00
2019-06-07T02:09:29.880Z,0.27
2019-06-07T02:10:30.302Z,0.00
2019-06-07T02:11:28.770Z,0.00
2019-06-07T02:12:37.599Z,0.00
2019-06-07T02:13:28.892Z,0.00
2019-06-07T02:14:29.891Z,0.00
2019-06-07T02:15:30.702Z,0.00
2019-06-07T02:16:30.408Z,0.00
2019-06-07T02:17:29.744Z,0.00
2019-06-07T02:18:29.151Z,0.00
2019-06-07T02:19:27.548Z,0.00
2019-06-07T02:20:31.449Z,0.00
2019-06-07T02:21:30.448Z,0.00
2019-06-07T02:22:29.456Z,0.00
2019-06-07T02:23:29.199Z,0.00
2019-06-07T02:24:28.861Z,0.00
2019-06-07T02:25:39.308Z,0.00
2019-06-07T02:26:29.700Z,0.00
2019-06-07T02:27:27.488Z,0.00
2019-06-07T02:28:34.650Z,0.00
2019-06-07T02:29:30.279Z,0.00
2019-06-07T02:30:40.473Z,0.61
2019-06-07T02:31:28.699Z,0.45
2019-06-07T02:32:29.730Z,0.00
2019-06-07T02:33:28.947Z,0.00
2019-06-07T02:34:28.084Z,0.00
2019-06-07T02:35:34.744Z,0.00
2019-06-07T02:36:30.501Z,0.00
2019-06-07T02:37:27.744Z,0.00
2019-06-07T02:38:29.687Z,0.00
2019-06-07T02:39:28.895Z,0.02
2019-06-07T02:40:31.971Z,0.00
2019-06-07T02:41:33.330Z,0.00
2019-06-07T02:42:29.491Z,0.21
2019-06-07T02:43:27.551Z,0.47
2019-06-07T02:44:30.270Z,0.37
2019-06-07T02:45:29.892Z,0.00
2019-06-07T02:46:35.302Z,0.00
2019-06-07T02:47:28.686Z,0.00
2019-06-07T02:48:27.925Z,0.00
2019-06-07T02:49:28.965Z,0.00
2019-06-07T02:50:29.211Z,0.00
2019-06-07T02:51:28.081Z,0.00
2019-06-07T02:52:29.312Z,0.19
2019-06-07T02:53:27.223Z,1.09
2019-06-07T02:54:29.433Z,0.89
2019-06-07T02:55:29.596Z,0.08
2019-06-07T02:56:39.192Z,0.00
2019-06-07T02:57:28.538Z,0.00
2019-06-07T02:58:31.155Z,0.00
2019-06-07T02:59:47.225Z,0.00
2019-06-07T03:00:51.423Z,0.00
2019-06-07T03:01:28.543Z,0.00
2019-06-07T03:02:31.032Z,0.00
2019-06-07T03:03:28.897Z,0.58
2019-06-07T03:04:28.916Z,0.07
2019-06-07T03:05:27.387Z,0.56
2019-06-07T03:06:29.773Z,0.33
2019-06-07T03:07:28.311Z,0.01
2019-06-07T03:08:28.251Z,0.43
2019-06-07T03:09:28.845Z,0.52
2019-06-07T03:10:28.570Z,1.05
2019-06-07T03:11:28.103Z,1.18
2019-06-07T03:12:28.966Z,1.00
2019-06-07T03:13:28.923Z,0.60
2019-06-07T03:14:26.791Z,0.00
2019-06-07T03:15:37.430Z,0.20
2019-06-07T03:16:26.776Z,0.05
2019-06-07T03:17:27.166Z,0.12
2019-06-07T03:18:28.649Z,0.00
2019-06-07T03:19:26.854Z,0.16
2019-06-07T03:20:27.614Z,0.00
2019-06-07T03:21:28.159Z,0.00
2019-06-07T03:22:26.809Z,0.34
2019-06-07T03:23:28.704Z,0.27
2019-06-07T03:24:31.015Z,0.34
2019-06-07T03:25:28.120Z,0.19
2019-06-07T03:26:27.620Z,0.11
2019-06-07T03:27:38.891Z,0.02
2019-06-07T03:28:27.630Z,0.08
2019-06-07T03:29:28.840Z,0.00
2019-06-07T03:30:39.844Z,0.00
2019-06-07T03:31:28.490Z,0.15
2019-06-07T03:32:31.996Z,0.43
2019-06-07T03:33:26.907Z,0.00
2019-06-07T03:34:32.173Z,0.00
2019-06-07T03:35:28.473Z,0.28
2019-06-07T03:36:27.547Z,0.67
2019-06-07T03:37:28.070Z,0.78
2019-06-07T03:38:27.729Z,0.10
2019-06-07T03:39:28.417Z,0.00
2019-06-07T03:40:26.823Z,0.00
2019-06-07T03:41:29.300Z,0.00
2019-06-07T03:42:26.803Z,0.00
2019-06-07T03:43:27.405Z,0.00
2019-06-07T03:44:28.659Z,0.00
2019-06-07T03:45:28.610Z,0.00
2019-06-07T03:46:27.320Z,0.17
2019-06-07T03:47:30.602Z,0.40
2019-06-07T03:48:28.437Z,0.07
2019-06-07T03:49:27.922Z,0.00
2019-06-07T03:50:30.584Z,0.10
2019-06-07T03:51:27.074Z,1.27
2019-06-07T03:52:27.453Z,0.98
2019-06-07T03:53:30.487Z,0.41
2019-06-07T03:54:27.234Z,0.50
2019-06-07T03:55:27.819Z,0.01
2019-06-07T03:56:28.319Z,0.24
2019-06-07T03:57:28.656Z,0.87
2019-06-07T03:58:32.580Z,0.89
2019-06-07T03:59:28.410Z,0.77
2019-06-07T04:00:29.603Z,0.39
2019-06-07T04:01:28.601Z,0.01
2019-06-07T04:02:27.850Z,0.00
2019-06-07T04:03:36.086Z,0.00
2019-06-07T04:04:27.357Z,0.00
2019-06-07T04:05:28.740Z,0.00
2019-06-07T04:06:28.991Z,0.00
2019-06-07T04:07:28.950Z,0.10
2019-06-07T04:08:28.187Z,0.64
2019-06-07T04:09:28.588Z,0.06
2019-06-07T04:10:45.762Z,0.54
2019-06-07T04:11:27.814Z,0.58
2019-06-07T04:12:28.394Z,0.02
2019-06-07T04:13:28.916Z,0.00
2019-06-07T04:14:29.334Z,0.00
2019-06-07T04:15:27.804Z,0.00
2019-06-07T04:16:28.818Z,0.00
2019-06-07T04:17:27.408Z,0.19
2019-06-07T04:18:27.930Z,1.37
2019-06-07T04:19:28.735Z,0.71
2019-06-07T04:20:29.183Z,0.66
2019-06-07T04:21:29.508Z,0.64
2019-06-07T04:22:28.751Z,0.08
2019-06-07T04:23:29.966Z,0.00
2019-06-07T04:24:26.807Z,0.00
2019-06-07T04:25:26.841Z,0.00
2019-06-07T04:26:30.910Z,0.44
2019-06-07T04:27:26.849Z,0.60
2019-06-07T04:29:15.621Z,0.53
2019-06-07T04:29:47.329Z,0.45
2019-06-07T04:30:26.860Z,0.02
2019-06-07T04:31:26.827Z,0.00
2019-06-07T04:32:26.839Z,0.00
2019-06-07T04:33:26.852Z,0.00
2019-06-07T04:34:26.845Z,0.00
2019-06-07T04:35:26.842Z,0.00
2019-06-07T04:36:41.723Z,0.00
2019-06-07T04:37:26.836Z,0.00
2019-06-07T04:38:26.843Z,0.00
2019-06-07T04:39:26.856Z,0.00
2019-06-07T04:40:27.836Z,0.00
2019-06-07T04:41:26.853Z,0.00
2019-06-07T04:42:26.915Z,0.00
2019-06-07T04:43:26.891Z,0.00
2019-06-07T04:44:26.849Z,0.00
2019-06-07T04:45:33.948Z,0.00
2019-06-07T04:46:26.905Z,0.00
2019-06-07T04:47:26.834Z,0.00
2019-06-07T04:48:26.845Z,0.17
2019-06-07T04:49:26.952Z,0.08
2019-06-07T04:50:26.913Z,0.05
2019-06-07T04:51:26.893Z,0.00
2019-06-07T04:52:26.905Z,0.00
2019-06-07T04:53:26.856Z,0.00
2019-06-07T04:54:26.846Z,0.04
2019-06-07T04:55:26.887Z,0.07
2019-06-07T04:56:26.917Z,0.03
2019-06-07T04:57:26.860Z,0.18
2019-06-07T04:58:26.862Z,0.32
2019-06-07T05:00:04.177Z,0.76
2019-06-07T05:00:46.934Z,0.51
2019-06-07T05:01:29.137Z,0.51
2019-06-07T05:02:26.944Z,0.20
2019-06-07T05:03:26.926Z,1.23
2019-06-07T05:04:26.853Z,1.69
2019-06-07T05:05:26.874Z,0.92
2019-06-07T05:06:26.889Z,0.38
2019-06-07T05:07:26.943Z,0.22
2019-06-07T05:08:28.413Z,1.44
2019-06-07T05:09:26.858Z,1.00
2019-06-07T05:10:26.866Z,1.40
2019-06-07T05:11:26.872Z,1.21
2019-06-07T05:12:26.874Z,0.92
2019-06-07T05:13:26.930Z,0.84
2019-06-07T05:14:26.881Z,1.03
2019-06-07T05:15:26.878Z,1.41
2019-06-07T05:16:26.938Z,0.86
2019-06-07T05:17:26.894Z,0.71
2019-06-07T05:18:26.881Z,0.53
2019-06-07T05:19:26.943Z,0.89
2019-06-07T05:20:26.917Z,0.52
2019-06-07T05:21:48.213Z,0.52
2019-06-07T05:22:26.939Z,0.54
2019-06-07T05:24:02.470Z,0.25
2019-06-07T05:24:26.901Z,0.47
2019-06-07T05:25:26.909Z,0.56
2019-06-07T05:26:26.956Z,0.57
2019-06-07T05:27:26.921Z,0.38
2019-06-07T05:28:26.882Z,0.47
2019-06-07T05:29:26.892Z,0.42
2019-06-07T05:30:58.497Z,0.68
2019-06-07T05:31:26.955Z,0.93
2019-06-07T05:32:26.890Z,0.08
2019-06-07T05:33:26.887Z,0.80
2019-06-07T05:34:26.900Z,1.07
2019-06-07T05:35:26.980Z,0.52
2019-06-07T05:36:27.016Z,1.23
2019-06-07T05:37:26.929Z,0.44
2019-06-07T05:38:26.888Z,0.41
2019-06-07T05:39:26.876Z,0.40
2019-06-07T05:40:26.884Z,0.88
2019-06-07T05:41:26.921Z,0.54
2019-06-07T05:42:26.872Z,0.44
2019-06-07T05:43:26.975Z,0.11
2019-06-07T05:44:27.127Z,0.75
2019-06-07T05:45:26.912Z,1.10
2019-06-07T05:46:26.990Z,1.62
2019-06-07T05:47:26.930Z,0.83
2019-06-07T05:48:27.012Z,0.32
2019-06-07T05:49:26.894Z,0.00
2019-06-07T05:50:38.508Z,0.00
2019-06-07T05:51:26.944Z,0.06
2019-06-07T05:52:26.977Z,0.14
2019-06-07T05:53:26.915Z,0.12
2019-06-07T05:54:26.903Z,0.08
2019-06-07T05:55:26.934Z,0.00
2019-06-07T05:56:26.958Z,0.00
2019-06-07T05:57:26.962Z,0.00
2019-06-07T05:58:27.186Z,0.39
2019-06-07T05:59:26.924Z,0.45
2019-06-07T06:00:26.910Z,0.11
2019-06-07T06:01:42.847Z,0.11
2019-06-07T06:02:26.930Z,0.51
2019-06-07T06:03:27.175Z,0.47
2019-06-07T06:04:26.939Z,0.60
2019-06-07T06:05:34.558Z,0.87
2019-06-07T06:06:26.944Z,0.36
2019-06-07T06:07:26.937Z,0.26
2019-06-07T06:08:26.952Z,0.00
2019-06-07T06:09:26.948Z,0.07
2019-06-07T06:10:27.004Z,0.04
2019-06-07T06:11:43.434Z,0.34
2019-06-07T06:12:35.335Z,0.31
2019-06-07T06:13:26.966Z,0.03
2019-06-07T06:14:26.960Z,0.64
2019-06-07T06:15:41.593Z,0.51
2019-06-07T06:16:26.984Z,0.62
2019-06-07T06:17:26.929Z,0.39
2019-06-07T06:18:26.940Z,0.66
2019-06-07T06:19:27.478Z,0.60
2019-06-07T06:20:32.863Z,0.54
2019-06-07T06:21:26.928Z,0.01
2019-06-07T06:22:27.011Z,0.00
2019-06-07T06:23:27.137Z,0.00
2019-06-07T06:24:26.994Z,0.00
2019-06-07T06:25:32.962Z,0.00
2019-06-07T06:26:26.952Z,0.09
2019-06-07T06:28:27.340Z,0.00
2019-06-07T06:29:26.940Z,0.22
2019-06-07T06:30:26.983Z,0.53
2019-06-07T06:31:26.991Z,0.43
2019-06-07T06:32:46.477Z,0.08
2019-06-07T06:33:34.218Z,0.23
2019-06-07T06:34:27.010Z,0.00
2019-06-07T06:35:26.975Z,0.00
2019-06-07T06:36:26.937Z,0.00
2019-06-07T06:37:27.005Z,0.50
2019-06-07T06:38:26.958Z,0.41
2019-06-07T06:39:26.945Z,0.11
2019-06-07T06:40:27.060Z,0.41
2019-06-07T06:41:27.004Z,0.19
2019-06-07T06:42:26.957Z,0.27
2019-06-07T06:43:27.021Z,0.56
2019-06-07T06:44:26.981Z,0.56
2019-06-07T06:45:26.994Z,0.24
2019-06-07T06:46:38.869Z,0.34
2019-06-07T06:47:26.993Z,0.20
2019-06-07T06:48:26.985Z,0.21
2019-06-07T06:49:26.980Z,0.06
2019-06-07T06:50:27.013Z,0.01
2019-06-07T06:51:26.974Z,0.12
2019-06-07T06:52:27.029Z,0.12
2019-06-07T06:53:27.022Z,0.00
2019-06-07T06:54:40.254Z,0.17
2019-06-07T06:55:27.032Z,0.37
2019-06-07T06:56:27.036Z,0.02
2019-06-07T06:57:27.867Z,0.00
2019-06-07T06:58:27.024Z,0.02
2019-06-07T06:59:38.568Z,0.01
2019-06-07T07:00:43.153Z,0.14
2019-06-07T07:01:27.017Z,0.29
2019-06-07T07:02:27.024Z,0.01
2019-06-07T07:04:01.235Z,0.14
2019-06-07T07:04:27.127Z,0.09
2019-06-07T07:05:26.996Z,0.00
2019-06-07T07:06:27.226Z,0.00
2019-06-07T07:07:27.297Z,0.33
2019-06-07T07:08:26.984Z,0.10
2019-06-07T07:09:27.037Z,0.06
2019-06-07T07:10:27.036Z,0.75
2019-06-07T07:11:26.997Z,0.43
2019-06-07T07:12:27.011Z,1.07
2019-06-07T07:13:27.075Z,1.68
2019-06-07T07:14:26.985Z,2.14
2019-06-07T07:15:27.005Z,1.42
2019-06-07T07:16:27.010Z,0.84
2019-06-07T07:17:47.523Z,0.57
2019-06-07T07:18:27.009Z,0.18
2019-06-07T07:32:26.051Z,0.00
2019-06-07T07:33:26.014Z,0.00
2019-06-07T07:34:34.372Z,0.00
2019-06-07T07:35:26.003Z,0.00
2019-06-07T07:38:26.016Z,0.32
2019-06-07T07:39:26.073Z,0.68
2019-06-07T07:40:56.939Z,0.44
2019-06-07T07:41:26.007Z,0.60
2019-06-07T07:44:26.042Z,0.08
2019-06-07T07:45:26.012Z,0.09
2019-06-07T07:46:29.767Z,0.11
2019-06-07T07:47:26.050Z,0.02
2019-06-07T07:50:26.073Z,0.30
2019-06-07T07:51:26.020Z,0.57
2019-06-07T07:52:26.017Z,0.29
2019-06-07T07:53:45.019Z,0.24
2019-06-07T07:56:26.059Z,0.00
2019-06-07T07:57:26.034Z,0.07
2019-06-07T07:58:26.029Z,0.09
2019-06-07T07:59:41.102Z,0.52
2019-06-07T08:02:26.046Z,0.00
2019-06-07T08:03:26.047Z,0.11
2019-06-07T08:05:12.007Z,0.09
2019-06-07T08:05:40.004Z,0.17
2019-06-07T08:08:26.067Z,0.34
2019-06-07T08:09:26.093Z,0.21
2019-06-07T08:10:26.121Z,1.03
2019-06-07T08:11:26.044Z,0.94
2019-06-07T08:14:26.056Z,0.41
2019-06-07T08:15:26.072Z,0.00
2019-06-07T08:16:26.051Z,0.05
2019-06-07T08:17:26.052Z,0.40
2019-06-07T08:20:26.063Z,0.15
2019-06-07T08:21:26.984Z,0.51
2019-06-07T08:22:26.047Z,0.01
2019-06-07T08:23:26.070Z,0.00
2019-06-07T08:26:26.058Z,0.33
2019-06-07T08:27:26.932Z,0.56
2019-06-07T08:28:26.051Z,0.34
2019-06-07T08:29:26.093Z,0.98
2019-06-07T08:32:26.054Z,0.26
2019-06-07T08:33:26.934Z,0.38
2019-06-07T08:34:26.064Z,1.03
2019-06-07T08:38:33.834Z,0.44
2019-06-07T08:39:26.134Z,1.47
2019-06-07T08:40:26.074Z,1.06
2019-06-07T08:41:26.123Z,0.79
2019-06-07T08:44:26.093Z,1.04
2019-06-07T08:45:26.087Z,1.17
2019-06-07T08:46:26.071Z,1.51
2019-06-07T08:47:26.110Z,1.35
2019-06-07T08:50:26.130Z,1.32
2019-06-07T08:51:26.096Z,1.03
2019-06-07T08:52:26.098Z,0.95
2019-06-07T08:53:26.091Z,1.17
2019-06-07T08:56:26.147Z,1.22
2019-06-07T08:57:26.094Z,0.62
2019-06-07T08:58:26.092Z,1.54
2019-06-07T08:59:26.130Z,1.14
2019-06-07T09:02:26.140Z,0.05
2019-06-07T09:03:26.095Z,0.91
2019-06-07T09:04:26.121Z,1.11
2019-06-07T09:05:26.104Z,1.60
2019-06-07T09:08:29.755Z,0.44
2019-06-07T09:09:26.099Z,0.77
2019-06-07T09:10:26.114Z,0.54
2019-06-07T09:11:26.272Z,1.10
2019-06-07T09:14:26.136Z,1.36
2019-06-07T09:15:26.115Z,0.98
2019-06-07T09:16:26.110Z,0.27
2019-06-07T09:17:26.113Z,1.07
2019-06-07T09:20:35.875Z,1.62
2019-06-07T09:21:26.165Z,0.77
2019-06-07T09:22:26.151Z,1.04
2019-06-07T09:23:26.136Z,1.18
2019-06-07T09:26:26.165Z,1.04
2019-06-07T09:27:26.126Z,1.25
2019-06-07T09:28:26.121Z,1.38
2019-06-07T09:29:26.150Z,1.06
2019-06-07T09:32:26.103Z,0.77
2019-06-07T09:33:26.131Z,1.65
2019-06-07T09:34:26.245Z,0.74
2019-06-07T09:35:26.156Z,0.86
2019-06-07T09:38:26.799Z,0.34
2019-06-07T09:39:26.125Z,0.29
2019-06-07T09:40:27.894Z,0.68
2019-06-07T09:41:46.151Z,0.72
2019-06-07T09:44:26.684Z,1.52
2019-06-07T09:45:26.197Z,1.11
2019-06-07T09:46:26.151Z,1.36
2019-06-07T09:47:32.193Z,0.95
2019-06-07T09:50:26.127Z,0.36
2019-06-07T09:51:26.190Z,1.13
2019-06-07T09:52:26.188Z,1.16
2019-06-07T09:53:26.153Z,0.66
2019-06-07T09:55:03.340Z,1.23
2019-06-07T09:56:26.161Z,0.73
2019-06-07T09:57:26.155Z,0.76
2019-06-07T09:58:51.784Z,0.28
2019-06-07T09:59:26.178Z,1.11
2019-06-07T10:02:26.187Z,0.45
2019-06-07T10:03:26.219Z,0.76
2019-06-07T10:04:31.035Z,1.53
2019-06-07T10:05:26.155Z,0.95
2019-06-07T10:09:42.628Z,2.47
2019-06-07T10:10:08.630Z,2.38
2019-06-07T10:11:26.176Z,0.70
2019-06-07T10:14:26.188Z,1.37
2019-06-07T10:15:26.176Z,1.62
2019-06-07T10:16:26.168Z,1.43
2019-06-07T10:17:26.223Z,2.39
2019-06-07T10:20:26.214Z,1.57
2019-06-07T10:21:26.199Z,1.11
2019-06-07T10:22:26.178Z,0.61
2019-06-07T10:23:26.198Z,1.15
2019-06-07T10:26:26.189Z,0.88
2019-06-07T10:27:26.256Z,1.49
2019-06-07T10:28:26.182Z,1.71
2019-06-07T10:29:26.205Z,1.72
2019-06-07T10:32:26.181Z,0.59
2019-06-07T10:33:26.205Z,1.16
2019-06-07T10:34:26.181Z,0.84
2019-06-07T10:35:26.238Z,1.36
2019-06-07T10:38:26.244Z,0.95
2019-06-07T10:39:26.214Z,2.09
2019-06-07T10:40:26.204Z,1.02
2019-06-07T10:41:26.182Z,1.87
2019-06-07T10:44:26.205Z,1.19
2019-06-07T10:45:26.204Z,0.84
2019-06-07T10:46:26.214Z,1.80
2019-06-07T10:47:26.297Z,1.30
2019-06-07T10:50:26.267Z,2.18
2019-06-07T10:51:26.249Z,2.31
2019-06-07T10:52:26.215Z,1.65
2019-06-07T10:53:26.272Z,1.09
2019-06-07T10:56:26.256Z,1.40
2019-06-07T10:57:26.246Z,1.97
2019-06-07T10:58:26.223Z,1.94
2019-06-07T10:59:26.266Z,1.55
2019-06-07T11:02:26.244Z,1.32
2019-06-07T11:03:26.245Z,2.25
2019-06-07T11:04:26.221Z,2.54
2019-06-07T11:05:26.209Z,3.13
2019-06-07T11:08:26.267Z,2.71
2019-06-07T11:09:26.299Z,1.68
2019-06-07T11:10:26.235Z,1.67
2019-06-07T11:11:26.273Z,2.18
2019-06-07T11:14:26.282Z,3.98
2019-06-07T11:15:26.326Z,2.94
2019-06-07T11:16:26.251Z,2.45
2019-06-07T11:17:26.299Z,1.33
2019-06-07T11:20:26.292Z,0.70
2019-06-07T11:21:26.257Z,1.27
2019-06-07T11:22:26.250Z,0.98
2019-06-07T11:23:26.263Z,1.88
2019-06-07T11:26:26.263Z,3.87
2019-06-07T11:27:26.457Z,4.60
2019-06-07T11:28:26.268Z,3.95
2019-06-07T11:29:26.237Z,4.47
2019-06-07T11:32:26.300Z,1.85
2019-06-07T11:33:26.329Z,3.75
2019-06-07T11:34:26.265Z,3.02
2019-06-07T11:35:26.315Z,2.62
2019-06-07T11:38:26.271Z,2.72
2019-06-07T11:39:26.345Z,2.76
2019-06-07T11:40:34.386Z,3.06
2019-06-07T11:41:26.272Z,1.77
2019-06-07T11:44:26.329Z,3.43
2019-06-07T11:45:26.363Z,3.70
2019-06-07T11:46:26.273Z,2.28
2019-06-07T11:47:26.294Z,0.83
2019-06-07T11:50:26.288Z,0.94
2019-06-07T11:51:26.272Z,0.88
2019-06-07T11:52:26.289Z,1.55
2019-06-07T11:53:26.295Z,2.83
2019-06-07T11:56:26.294Z,0.99
2019-06-07T11:57:26.291Z,1.58
2019-06-07T11:58:26.305Z,1.03
2019-06-07T11:59:26.283Z,0.98
2019-06-07T12:02:26.338Z,2.07
2019-06-07T12:03:26.361Z,1.35
2019-06-07T12:04:34.514Z,2.51
2019-06-07T12:05:26.309Z,2.23
2019-06-07T12:08:26.340Z,2.44
2019-06-07T12:09:28.108Z,4.01
2019-06-07T12:10:26.315Z,2.76
2019-06-07T12:11:26.355Z,2.32
2019-06-07T12:14:26.355Z,3.05
2019-06-07T12:15:26.374Z,2.87
2019-06-07T12:16:26.317Z,2.54
2019-06-07T12:17:26.363Z,1.83
2019-06-07T12:20:26.313Z,4.13
2019-06-07T12:21:26.343Z,2.66
2019-06-07T12:22:26.328Z,2.28
2019-06-07T12:23:26.368Z,1.59
2019-06-07T12:26:26.369Z,1.41
2019-06-07T12:27:26.390Z,1.57
2019-06-07T12:28:26.364Z,1.50
2019-06-07T12:29:26.329Z,1.25
2019-06-07T12:32:26.386Z,0.63
2019-06-07T12:33:26.388Z,0.37
2019-06-07T12:34:26.346Z,0.61
2019-06-07T12:35:26.381Z,0.72
2019-06-07T12:38:26.345Z,1.21
2019-06-07T12:39:26.421Z,3.00
2019-06-07T12:40:31.854Z,3.74
2019-06-07T12:41:26.356Z,3.62
2019-06-07T12:44:26.391Z,1.76
2019-06-07T12:45:43.627Z,2.13
2019-06-07T12:46:28.505Z,2.08
2019-06-07T12:47:26.386Z,1.04
2019-06-07T12:50:41.624Z,1.71
2019-06-07T12:51:26.364Z,0.93
2019-06-07T12:52:26.373Z,1.80
2019-06-07T12:53:28.108Z,2.10
2019-06-07T12:56:26.404Z,1.55
2019-06-07T12:57:26.366Z,0.98
2019-06-07T12:58:34.707Z,2.31
2019-06-07T12:59:26.395Z,3.24
2019-06-07T13:02:26.382Z,4.03
2019-06-07T13:03:26.399Z,2.76
2019-06-07T13:04:27.766Z,2.02
2019-06-07T13:05:27.898Z,2.39
2019-06-07T13:08:26.416Z,3.90
2019-06-07T13:09:26.398Z,2.53
2019-06-07T13:10:26.411Z,0.97
2019-06-07T13:11:29.513Z,1.57
2019-06-07T13:14:26.473Z,2.00
2019-06-07T13:15:26.398Z,2.91
2019-06-07T13:16:26.400Z,1.77
2019-06-07T13:17:26.431Z,1.77
2019-06-07T13:20:26.380Z,2.33
2019-06-07T13:21:26.400Z,2.31
2019-06-07T13:22:26.393Z,2.38
2019-06-07T13:23:26.392Z,0.65
2019-06-07T13:26:26.395Z,0.50
2019-06-07T13:27:26.431Z,0.61
2019-06-07T13:28:26.439Z,1.20
2019-06-07T13:29:29.603Z,2.03
2019-06-07T13:32:26.428Z,5.39
2019-06-07T13:33:29.795Z,3.91
2019-06-07T13:34:26.418Z,2.28
2019-06-07T13:35:29.416Z,2.87
2019-06-07T13:38:26.447Z,1.85
2019-06-07T13:39:29.290Z,1.58
2019-06-07T13:40:26.437Z,2.27
2019-06-07T13:41:36.845Z,2.00
2019-06-07T13:44:26.446Z,3.50
2019-06-07T13:45:26.442Z,2.51
2019-06-07T13:46:27.163Z,0.88
2019-06-07T13:47:27.494Z,2.30
2019-06-07T13:50:26.431Z,2.06
2019-06-07T13:51:27.984Z,3.34
2019-06-07T13:52:26.431Z,3.73
2019-06-07T13:53:26.479Z,4.26
2019-06-07T13:56:26.485Z,4.19
2019-06-07T13:57:26.507Z,2.94
2019-06-07T13:58:26.525Z,3.45
2019-06-07T13:59:26.538Z,2.80
2019-06-07T14:02:27.560Z,2.70
2019-06-07T14:03:28.668Z,1.28
2019-06-07T14:04:27.046Z,1.68
2019-06-07T14:05:27.279Z,1.37
2019-06-07T14:08:27.285Z,2.10
2019-06-07T14:09:27.600Z,1.18
2019-06-07T14:10:27.543Z,0.62
2019-06-07T14:11:27.765Z,0.41
2019-06-07T14:12:27.734Z,0.23
2019-06-07T14:14:27.462Z,1.21
2019-06-07T14:15:26.563Z,1.14
2019-06-07T14:16:26.481Z,1.27
2019-06-07T14:17:28.099Z,1.43
2019-06-07T14:18:26.526Z,0.62
2019-06-07T14:20:30.948Z,0.74
2019-06-07T14:21:26.725Z,0.77
2019-06-07T14:22:26.844Z,2.28
2019-06-07T14:23:42.405Z,1.64
2019-06-07T14:24:27.058Z,2.05
2019-06-07T14:26:27.311Z,1.28
2019-06-07T14:27:27.587Z,3.41
2019-06-07T14:28:28.558Z,3.18
2019-06-07T14:29:27.767Z,0.89
2019-06-07T14:30:28.247Z,1.89
2019-06-07T14:32:26.641Z,1.23
2019-06-07T14:33:28.228Z,1.55
2019-06-07T14:34:26.484Z,0.95
2019-06-07T14:35:26.752Z,0.96
2019-06-07T14:36:26.984Z,3.66
2019-06-07T14:38:27.333Z,2.21
2019-06-07T14:39:27.121Z,1.21
2019-06-07T14:40:27.956Z,1.67
2019-06-07T14:41:27.183Z,0.89
2019-06-07T14:42:27.097Z,0.64
2019-06-07T14:44:27.691Z,1.83
2019-06-07T14:45:27.719Z,2.07
2019-06-07T14:46:26.513Z,0.93
2019-06-07T14:47:27.853Z,3.22
2019-06-07T14:48:27.890Z,3.13
2019-06-07T14:50:26.515Z,1.93
2019-06-07T14:51:26.575Z,2.41
2019-06-07T14:52:26.523Z,3.29
2019-06-07T14:53:26.691Z,3.22
2019-06-07T14:54:27.426Z,2.62
2019-06-07T14:56:27.024Z,1.17
2019-06-07T14:57:26.938Z,1.79
2019-06-07T14:58:27.097Z,2.03
2019-06-07T14:59:26.562Z,3.35
2019-06-07T15:00:26.533Z,1.35
2019-06-07T15:02:26.562Z,1.32
2019-06-07T15:03:26.622Z,0.93
2019-06-07T15:04:26.549Z,1.97
2019-06-07T15:05:26.684Z,0.98
2019-06-07T15:08:26.603Z,1.15
2019-06-07T15:09:26.902Z,1.54
2019-06-07T15:10:26.751Z,1.24
2019-06-07T15:11:26.877Z,2.88
2019-06-07T15:14:27.319Z,1.40
2019-06-07T15:15:26.562Z,0.37
2019-06-07T15:16:27.386Z,1.21
2019-06-07T15:17:26.556Z,1.36
2019-06-07T15:20:27.781Z,1.87
2019-06-07T15:21:26.738Z,1.19
2019-06-07T15:22:27.892Z,2.24
2019-06-07T15:23:27.045Z,1.89
2019-06-07T15:26:26.613Z,1.70
2019-06-07T15:27:27.211Z,0.78
2019-06-07T15:28:27.662Z,1.85
2019-06-07T15:29:27.479Z,2.47
2019-06-07T15:32:28.146Z,1.47
2019-06-07T15:33:27.875Z,1.76
2019-06-07T15:34:28.856Z,1.18
2019-06-07T15:35:27.834Z,2.31
2019-06-07T15:38:26.622Z,1.52
2019-06-07T15:39:26.643Z,1.45
2019-06-07T15:40:26.589Z,1.77
2019-06-07T15:41:26.624Z,0.83
2019-06-07T15:44:26.628Z,0.46
2019-06-07T15:45:26.629Z,1.69
2019-06-07T15:46:26.586Z,1.61
2019-06-07T15:47:26.593Z,1.31
2019-06-07T15:50:28.707Z,0.83
2019-06-07T15:51:26.595Z,2.28
2019-06-07T15:52:26.589Z,1.29
2019-06-07T15:53:26.621Z,2.20
2019-06-07T15:54:26.579Z,3.50
2019-06-07T15:56:26.596Z,1.45
2019-06-07T15:57:26.609Z,0.75
2019-06-07T15:58:26.628Z,1.70
2019-06-07T15:59:26.588Z,1.48
2019-06-07T16:02:26.645Z,1.63
2019-06-07T16:03:26.602Z,1.83
2019-06-07T16:04:26.624Z,0.67
2019-06-07T16:05:26.606Z,0.77
2019-06-07T16:08:26.597Z,1.15
2019-06-07T16:09:26.625Z,2.51
2019-06-07T16:10:26.616Z,2.30
2019-06-07T16:11:26.861Z,1.08
2019-06-07T16:13:26.624Z,2.31
2019-06-07T16:14:26.657Z,2.76
2019-06-07T16:15:26.637Z,2.90
2019-06-07T16:16:26.629Z,3.41